createdAt,value
2018-04-18T00:00:59.508Z,9.2
2018-04-18T00:02:06.717Z,9.3
2018-04-18T00:03:13.668Z,9.3
2018-04-18T00:04:20.876Z,9.2
2018-04-18T00:05:28.131Z,9.2
2018-04-18T00:06:35.340Z,9.2
2018-04-18T00:07:42.271Z,9.2
2018-04-18T00:08:49.204Z,9.2
2018-04-18T00:09:56.472Z,9.1
2018-04-18T00:11:03.680Z,9.2
2018-04-18T00:12:10.737Z,9.1
2018-04-18T00:13:17.402Z,9.1
2018-04-18T00:14:24.326Z,9.1
2018-04-18T00:15:31.266Z,9.1
2018-04-18T00:16:38.471Z,9.1
2018-04-18T00:17:45.690Z,9.1
2018-04-18T00:18:52.628Z,9.1
2018-04-18T00:19:59.847Z,9.1
2018-04-18T00:21:07.060Z,9
2018-04-18T00:22:14.270Z,9
2018-04-18T00:23:21.480Z,9
2018-04-18T00:24:28.717Z,8.9
2018-04-18T00:25:35.913Z,8.9
2018-04-18T00:26:42.840Z,8.9
2018-04-18T00:27:50.043Z,8.9
2018-04-18T00:28:57.251Z,8.9
2018-04-18T00:30:04.459Z,8.9
2018-04-18T00:31:11.388Z,8.9
2018-04-18T00:32:18.602Z,8.9
2018-04-18T00:33:25.809Z,8.9
2018-04-18T00:34:33.017Z,8.9
2018-04-18T00:35:40.246Z,8.8
2018-04-18T00:36:47.454Z,8.8
2018-04-18T00:37:54.671Z,8.8
2018-04-18T00:39:01.602Z,8.8
2018-04-18T00:40:08.818Z,8.8
2018-04-18T00:41:16.063Z,8.7
2018-04-18T00:42:23.287Z,8.7
2018-04-18T00:43:30.493Z,8.7
2018-04-18T00:44:37.424Z,8.7
2018-04-18T00:45:44.634Z,8.7
2018-04-18T00:46:51.843Z,8.7
2018-04-18T00:47:58.783Z,8.7
2018-04-18T00:49:05.991Z,8.7
2018-04-18T00:50:13.198Z,8.6
2018-04-18T00:51:20.428Z,8.6
2018-04-18T00:52:27.634Z,8.6
2018-04-18T00:53:34.562Z,8.6
2018-04-18T00:54:41.497Z,8.6
2018-04-18T00:55:48.708Z,8.6
2018-04-18T00:56:55.912Z,8.6
2018-04-18T00:58:03.112Z,8.6
2018-04-18T00:59:10.318Z,8.6
2018-04-18T01:00:17.523Z,8.6
2018-04-18T01:01:24.743Z,8.6
2018-04-18T01:02:31.952Z,8.6
2018-04-18T01:03:39.153Z,8.6
2018-04-18T01:04:46.434Z,8.6
2018-04-18T01:05:53.787Z,8.6
2018-04-18T01:07:01.004Z,8.5
2018-04-18T01:08:08.256Z,8.5
2018-04-18T01:09:15.469Z,8.6
2018-04-18T01:10:22.676Z,8.6
2018-04-18T01:11:29.888Z,8.6
2018-04-18T01:12:37.097Z,8.6
2018-04-18T01:13:44.307Z,8.5
2018-04-18T01:14:51.254Z,8.5
2018-04-18T01:15:58.466Z,8.4
2018-04-18T01:17:05.400Z,8.4
2018-04-18T01:18:12.331Z,8.4
2018-04-18T01:19:19.267Z,8.4
2018-04-18T01:20:26.197Z,8.4
2018-04-18T01:21:33.407Z,8.4
2018-04-18T01:22:40.609Z,8.4
2018-04-18T01:23:47.814Z,8.4
2018-04-18T01:24:55.028Z,8.4
2018-04-18T01:26:02.233Z,8.4
2018-04-18T01:27:09.438Z,8.4
2018-04-18T01:28:16.649Z,8.3
2018-04-18T01:29:23.857Z,8.3
2018-04-18T01:30:31.062Z,8.3
2018-04-18T01:31:38.290Z,8.3
2018-04-18T01:32:45.499Z,8.3
2018-04-18T01:33:52.705Z,8.3
2018-04-18T01:34:59.912Z,8.2
2018-04-18T01:36:07.114Z,8.2
2018-04-18T01:37:14.315Z,8.2
2018-04-18T01:38:21.529Z,8.2
2018-04-18T01:39:28.749Z,8.2
2018-04-18T01:40:35.962Z,8.2
2018-04-18T01:41:43.159Z,8.1
2018-04-18T01:42:50.378Z,8.1
2018-04-18T01:43:57.328Z,8
2018-04-18T01:45:04.530Z,8.1
2018-04-18T01:46:11.733Z,8.1
2018-04-18T01:47:18.941Z,8.1
2018-04-18T01:48:26.165Z,8.1
2018-04-18T01:49:33.372Z,8
2018-04-18T01:50:40.575Z,8
2018-04-18T01:51:47.781Z,8
2018-04-18T01:52:54.715Z,8
2018-04-18T01:54:01.646Z,8
2018-04-18T01:55:08.860Z,8
2018-04-18T01:56:16.079Z,7.9
2018-04-18T01:57:23.282Z,7.9
2018-04-18T01:58:30.483Z,8
2018-04-18T01:59:37.446Z,7.9
2018-04-18T02:00:44.395Z,7.9
2018-04-18T02:01:51.606Z,7.9
2018-04-18T02:02:58.957Z,7.8
2018-04-18T02:04:05.887Z,7.8
2018-04-18T02:05:13.095Z,7.8
2018-04-18T02:06:20.327Z,7.8
2018-04-18T02:07:27.272Z,7.8
2018-04-18T02:08:34.483Z,7.8
2018-04-18T02:09:41.420Z,7.8
2018-04-18T02:10:48.616Z,7.8
2018-04-18T02:11:55.819Z,7.8
2018-04-18T02:13:16.429Z,7.8
2018-04-18T02:14:23.656Z,7.8
2018-04-18T02:15:30.598Z,7.7
2018-04-18T02:16:37.824Z,7.7
2018-04-18T02:17:44.745Z,7.7
2018-04-18T02:18:51.675Z,7.7
2018-04-18T02:19:58.879Z,7.7
2018-04-18T02:21:06.084Z,7.7
2018-04-18T02:22:13.291Z,7.7
2018-04-18T02:23:20.514Z,7.7
2018-04-18T02:24:27.450Z,7.7
2018-04-18T02:25:34.665Z,7.7
2018-04-18T02:26:41.874Z,7.7
2018-04-18T02:27:49.074Z,7.8
2018-04-18T02:28:56.297Z,7.8
2018-04-18T02:30:03.001Z,7.8
2018-04-18T02:31:10.227Z,7.8
2018-04-18T02:32:17.432Z,7.8
2018-04-18T02:33:24.646Z,7.7
2018-04-18T02:34:31.596Z,7.7
2018-04-18T02:35:38.799Z,7.7
2018-04-18T02:36:46.008Z,7.7
2018-04-18T02:37:53.208Z,7.7
2018-04-18T02:39:00.419Z,7.7
2018-04-18T02:40:07.859Z,7.7
2018-04-18T02:41:15.055Z,7.7
2018-04-18T02:42:22.254Z,7.7
2018-04-18T02:43:29.457Z,7.7
2018-04-18T02:44:36.667Z,7.6
2018-04-18T02:45:43.870Z,7.6
2018-04-18T02:46:51.080Z,7.6
2018-04-18T02:47:58.033Z,7.6
2018-04-18T02:49:05.241Z,7.6
2018-04-18T02:50:12.448Z,7.6
2018-04-18T02:51:19.653Z,7.5
2018-04-18T02:52:26.857Z,7.5
2018-04-18T02:53:34.059Z,7.5
2018-04-18T02:54:41.263Z,7.5
2018-04-18T02:55:48.473Z,7.5
2018-04-18T02:56:55.675Z,7.5
2018-04-18T02:58:02.619Z,7.5
2018-04-18T02:59:09.832Z,7.5
2018-04-18T03:00:17.047Z,7.5
2018-04-18T03:01:24.267Z,7.5
2018-04-18T03:02:31.209Z,7.5
2018-04-18T03:03:38.173Z,7.5
2018-04-18T03:04:45.399Z,7.5
2018-04-18T03:05:52.327Z,7.4
2018-04-18T03:06:59.548Z,7.4
2018-04-18T03:08:06.751Z,7.4
2018-04-18T03:09:14.191Z,7.4
2018-04-18T03:10:21.396Z,7.3
2018-04-18T03:11:28.640Z,7.4
2018-04-18T03:12:35.847Z,7.3
2018-04-18T03:13:43.069Z,7.4
2018-04-18T03:14:50.310Z,7.3
2018-04-18T03:15:57.535Z,7.3
2018-04-18T03:17:04.765Z,7.3
2018-04-18T03:18:12.190Z,7.3
2018-04-18T03:19:19.396Z,7.4
2018-04-18T03:20:26.838Z,7.3
2018-04-18T03:21:34.061Z,7.3
2018-04-18T03:22:41.280Z,7.3
2018-04-18T03:23:48.490Z,7.2
2018-04-18T03:24:55.690Z,7.2
2018-04-18T03:26:02.919Z,7.2
2018-04-18T03:27:10.141Z,7.2
2018-04-18T03:28:17.365Z,7.2
2018-04-18T03:29:24.337Z,7.2
2018-04-18T03:30:31.269Z,7.2
2018-04-18T03:31:38.978Z,7.2
2018-04-18T03:32:46.213Z,7.2
2018-04-18T03:33:53.416Z,7.1
2018-04-18T03:35:00.627Z,7.1
2018-04-18T03:36:07.835Z,7.1
2018-04-18T03:37:15.042Z,7.1
2018-04-18T03:38:22.480Z,7.1
2018-04-18T03:39:29.691Z,7.1
2018-04-18T03:40:36.914Z,7.1
2018-04-18T03:41:44.136Z,7.1
2018-04-18T03:42:51.360Z,7
2018-04-18T03:43:58.296Z,7
2018-04-18T03:45:05.512Z,7
2018-04-18T03:46:12.722Z,6.9
2018-04-18T03:47:19.887Z,6.9
2018-04-18T03:48:27.101Z,6.9
2018-04-18T03:49:34.522Z,6.9
2018-04-18T03:50:41.452Z,6.9
2018-04-18T03:51:48.658Z,6.9
2018-04-18T03:52:55.878Z,6.9
2018-04-18T03:54:03.099Z,6.9
2018-04-18T03:55:10.321Z,6.9
2018-04-18T03:56:17.526Z,6.9
2018-04-18T03:57:24.733Z,6.9
2018-04-18T03:58:31.677Z,6.9
2018-04-18T03:59:38.915Z,6.9
2018-04-18T04:00:46.127Z,6.9
2018-04-18T04:01:53.335Z,6.9
2018-04-18T04:03:00.581Z,6.9
2018-04-18T04:04:07.810Z,6.9
2018-04-18T04:05:15.016Z,6.9
2018-04-18T04:06:22.241Z,6.9
2018-04-18T04:07:29.448Z,6.9
2018-04-18T04:08:36.676Z,6.9
2018-04-18T04:09:43.910Z,6.9
2018-04-18T04:10:51.111Z,6.9
2018-04-18T04:11:58.351Z,6.9
2018-04-18T04:13:05.565Z,6.9
2018-04-18T04:14:12.772Z,6.9
2018-04-18T04:15:19.980Z,6.8
2018-04-18T04:16:27.235Z,6.8
2018-04-18T04:17:34.482Z,6.8
2018-04-18T04:18:41.680Z,6.8
2018-04-18T04:19:48.896Z,6.8
2018-04-18T04:20:55.827Z,6.9
2018-04-18T04:22:03.033Z,6.9
2018-04-18T04:23:10.254Z,6.9
2018-04-18T04:24:17.698Z,6.8
2018-04-18T04:25:24.925Z,6.8
2018-04-18T04:26:32.152Z,6.8
2018-04-18T04:27:39.105Z,6.8
2018-04-18T04:28:46.340Z,6.8
2018-04-18T04:29:53.571Z,6.8
2018-04-18T04:31:00.518Z,6.7
2018-04-18T04:32:07.442Z,6.7
2018-04-18T04:33:14.891Z,6.7
2018-04-18T04:34:22.097Z,6.7
2018-04-18T04:35:29.087Z,6.6
2018-04-18T04:36:36.288Z,6.7
2018-04-18T04:37:43.502Z,6.7
2018-04-18T04:38:50.435Z,6.7
2018-04-18T04:39:57.360Z,6.8
2018-04-18T04:41:04.316Z,6.8
2018-04-18T04:42:11.553Z,6.8
2018-04-18T04:43:18.756Z,6.8
2018-04-18T04:44:25.403Z,6.8
2018-04-18T04:45:32.606Z,6.9
2018-04-18T04:46:40.051Z,6.9
2018-04-18T04:47:47.260Z,7
2018-04-18T04:48:54.475Z,7
2018-04-18T04:50:01.669Z,6.9
2018-04-18T04:51:08.907Z,6.9
2018-04-18T04:52:16.115Z,6.9
2018-04-18T04:53:23.343Z,6.9
2018-04-18T04:54:30.279Z,6.9
2018-04-18T04:55:37.477Z,6.9
2018-04-18T04:56:44.682Z,6.9
2018-04-18T04:57:51.917Z,6.9
2018-04-18T04:58:58.861Z,6.9
2018-04-18T05:00:06.039Z,6.9
2018-04-18T05:01:13.245Z,6.9
2018-04-18T05:02:20.790Z,6.9
2018-04-18T05:03:27.990Z,7
2018-04-18T05:04:34.933Z,7
2018-04-18T05:05:42.139Z,7.1
2018-04-18T05:06:49.341Z,7.1
2018-04-18T05:07:56.548Z,7.1
2018-04-18T05:09:03.754Z,7.1
2018-04-18T05:10:10.676Z,7.1
2018-04-18T05:11:17.888Z,7.1
2018-04-18T05:12:25.094Z,7.1
2018-04-18T05:13:32.310Z,7.1
2018-04-18T05:14:39.518Z,7.2
2018-04-18T05:15:46.464Z,7.2
2018-04-18T05:16:53.676Z,7.2
2018-04-18T05:18:00.888Z,7.2
2018-04-18T05:19:08.089Z,7.2
2018-04-18T05:20:15.304Z,7.2
2018-04-18T05:21:22.521Z,7.3
2018-04-18T05:22:29.453Z,7.3
2018-04-18T05:23:36.669Z,7.3
2018-04-18T05:24:43.874Z,7.3
2018-04-18T05:25:51.090Z,7.4
2018-04-18T05:26:58.295Z,7.4
2018-04-18T05:28:05.498Z,7.4
2018-04-18T05:29:12.969Z,7.4
2018-04-18T05:30:20.211Z,7.5
2018-04-18T05:31:27.419Z,7.5
2018-04-18T05:32:34.625Z,7.5
2018-04-18T05:33:41.547Z,7.6
2018-04-18T05:34:49.033Z,7.6
2018-04-18T05:35:56.242Z,7.7
2018-04-18T05:37:03.196Z,7.7
2018-04-18T05:38:10.406Z,7.8
2018-04-18T05:39:17.622Z,7.8
2018-04-18T05:40:24.875Z,7.9
2018-04-18T05:41:32.087Z,8
2018-04-18T05:42:39.298Z,8
2018-04-18T05:43:46.502Z,8.1
2018-04-18T05:44:53.708Z,8.2
2018-04-18T05:46:00.931Z,8.2
2018-04-18T05:47:07.864Z,8.3
2018-04-18T05:48:14.822Z,8.4
2018-04-18T05:49:22.029Z,8.4
2018-04-18T05:50:29.252Z,8.5
2018-04-18T05:51:35.911Z,8.5
2018-04-18T05:52:43.117Z,8.5
2018-04-18T05:53:49.817Z,8.7
2018-04-18T05:54:57.025Z,8.7
2018-04-18T05:56:04.236Z,8.8
2018-04-18T05:57:10.902Z,8.9
2018-04-18T05:58:17.559Z,8.9
2018-04-18T05:59:24.794Z,9
2018-04-18T06:00:31.989Z,9.1
2018-04-18T06:01:39.214Z,9.2
2018-04-18T06:02:45.864Z,9.3
2018-04-18T06:03:53.072Z,9.4
2018-04-18T06:05:00.275Z,9.5
2018-04-18T06:06:07.476Z,9.5
2018-04-18T06:07:14.752Z,9.6
2018-04-18T06:08:21.956Z,9.8
2018-04-18T06:09:29.171Z,9.8
2018-04-18T06:10:36.391Z,9.9
2018-04-18T06:11:43.591Z,10
2018-04-18T06:12:50.815Z,10.1
2018-04-18T06:13:58.031Z,10.2
2018-04-18T06:15:04.972Z,10.3
2018-04-18T06:16:12.186Z,10.4
2018-04-18T06:17:19.388Z,10.5
2018-04-18T06:18:26.596Z,10.6
2018-04-18T06:19:33.806Z,10.8
2018-04-18T06:20:41.025Z,10.9
2018-04-18T06:21:48.225Z,11.1
2018-04-18T06:22:55.433Z,11.3
2018-04-18T06:24:02.638Z,11.4
2018-04-18T06:25:09.573Z,11.6
2018-04-18T06:26:16.781Z,11.8
2018-04-18T06:27:23.991Z,12
2018-04-18T06:28:31.201Z,12.2
2018-04-18T06:29:38.418Z,12.5
2018-04-18T06:30:45.353Z,12.6
2018-04-18T06:31:52.571Z,12.8
2018-04-18T06:32:59.796Z,13
2018-04-18T06:34:06.729Z,13.1
2018-04-18T06:35:13.961Z,13.3
2018-04-18T06:36:21.178Z,13.4
2018-04-18T06:37:28.133Z,13.6
2018-04-18T06:38:35.076Z,13.7
2018-04-18T06:39:42.024Z,14
2018-04-18T06:40:49.235Z,14.1
2018-04-18T06:41:56.467Z,14.4
2018-04-18T06:43:03.697Z,14.6
2018-04-18T06:44:10.921Z,14.7
2018-04-18T06:45:18.130Z,14.9
2018-04-18T06:46:25.065Z,15
2018-04-18T06:47:32.272Z,15.2
2018-04-18T06:48:39.200Z,15.3
2018-04-18T06:49:46.414Z,15.5
2018-04-18T06:50:53.353Z,15.6
2018-04-18T06:52:00.561Z,15.8
2018-04-18T06:53:07.775Z,15.9
2018-04-18T06:54:14.984Z,15.8
2018-04-18T06:55:22.195Z,16
2018-04-18T06:56:29.402Z,16.2
2018-04-18T06:57:36.375Z,16
2018-04-18T06:58:43.635Z,15.9
2018-04-18T06:59:50.859Z,16
2018-04-18T07:00:57.792Z,16
2018-04-18T07:02:05.004Z,16.1
2018-04-18T07:03:12.211Z,16.2
2018-04-18T07:04:19.427Z,16.4
2018-04-18T07:05:26.365Z,16.5
2018-04-18T07:06:33.308Z,16.7
2018-04-18T07:07:40.535Z,16.7
2018-04-18T07:08:47.747Z,16.8
2018-04-18T07:09:54.698Z,16.9
2018-04-18T07:11:01.924Z,16.9
2018-04-18T07:12:09.136Z,17
2018-04-18T07:13:16.072Z,17.1
2018-04-18T07:14:23.286Z,17.3
2018-04-18T07:15:30.505Z,17.4
2018-04-18T07:16:37.720Z,17.4
2018-04-18T07:17:44.932Z,17.3
2018-04-18T07:18:52.140Z,17.3
2018-04-18T07:19:59.356Z,17.5
2018-04-18T07:21:06.574Z,17.7
2018-04-18T07:22:13.511Z,17.7
2018-04-18T07:23:20.168Z,17.6
2018-04-18T07:24:27.380Z,17.6
2018-04-18T07:25:34.605Z,17.6
2018-04-18T07:26:41.542Z,17.6
2018-04-18T07:27:48.475Z,17.8
2018-04-18T07:28:55.680Z,17.9
2018-04-18T07:30:02.888Z,18.1
2018-04-18T07:31:10.102Z,18.1
2018-04-18T07:32:17.324Z,18.2
2018-04-18T07:33:24.537Z,18.3
2018-04-18T07:34:31.757Z,18.3
2018-04-18T07:35:38.972Z,18.4
2018-04-18T07:36:46.190Z,18.6
2018-04-18T07:37:53.416Z,18.8
2018-04-18T07:39:00.629Z,18.9
2018-04-18T07:40:07.915Z,19.1
2018-04-18T07:41:14.964Z,19.4
2018-04-18T07:42:22.187Z,19.5
2018-04-18T07:43:29.127Z,19.7
2018-04-18T07:44:36.339Z,19.8
2018-04-18T07:45:43.553Z,19.9
2018-04-18T07:46:50.767Z,20.2
2018-04-18T07:47:57.976Z,20.4
2018-04-18T07:49:04.938Z,20.4
2018-04-18T07:50:12.157Z,20.4
2018-04-18T07:51:19.369Z,20.4
2018-04-18T07:52:26.311Z,20.5
2018-04-18T07:53:33.519Z,20.7
2018-04-18T07:54:40.729Z,20.4
2018-04-18T07:55:47.940Z,20.2
2018-04-18T07:56:55.335Z,20.3
2018-04-18T07:58:02.560Z,20.4
2018-04-18T07:59:09.769Z,20.5
2018-04-18T08:00:16.992Z,20.7
2018-04-18T08:01:24.207Z,20.8
2018-04-18T08:02:31.437Z,20.7
2018-04-18T08:03:38.652Z,20.8
2018-04-18T08:04:45.584Z,20.8
2018-04-18T08:05:52.529Z,21
2018-04-18T08:06:59.469Z,21.4
2018-04-18T08:08:06.694Z,21.6
2018-04-18T08:09:13.914Z,21.8
2018-04-18T08:10:20.857Z,21.4
2018-04-18T08:11:28.082Z,21.1
2018-04-18T08:12:35.299Z,21.1
2018-04-18T08:13:42.514Z,20.9
2018-04-18T08:14:49.738Z,21.1
2018-04-18T08:15:56.675Z,21.4
2018-04-18T08:17:04.124Z,21.7
2018-04-18T08:18:11.342Z,22
2018-04-18T08:19:18.292Z,22.2
2018-04-18T08:20:25.242Z,22.4
2018-04-18T08:21:32.475Z,22.6
2018-04-18T08:22:39.717Z,22.8
2018-04-18T08:23:46.933Z,22.7
2018-04-18T08:24:54.165Z,23
2018-04-18T08:26:01.446Z,23.1
2018-04-18T08:27:08.665Z,23.2
2018-04-18T08:28:15.909Z,23.4
2018-04-18T08:29:23.133Z,23.3
2018-04-18T08:30:30.368Z,23.3
2018-04-18T08:31:37.585Z,23.2
2018-04-18T08:32:44.837Z,23.2
2018-04-18T08:33:51.505Z,23.4
2018-04-18T08:34:58.727Z,23.6
2018-04-18T08:36:05.939Z,23.7
2018-04-18T08:37:13.175Z,23.7
2018-04-18T08:38:20.398Z,23.6
2018-04-18T08:39:27.652Z,23.6
2018-04-18T08:40:34.869Z,23.7
2018-04-18T08:41:42.097Z,23.8
2018-04-18T08:42:49.474Z,24.1
2018-04-18T08:43:56.706Z,24.1
2018-04-18T08:45:03.664Z,24.3
2018-04-18T08:46:10.339Z,24.4
2018-04-18T08:47:17.557Z,24.5
2018-04-18T08:48:24.786Z,24.3
2018-04-18T08:49:32.002Z,24.2
2018-04-18T08:50:39.222Z,24.1
2018-04-18T08:51:46.168Z,24.1
2018-04-18T08:52:53.382Z,24.4
2018-04-18T08:54:00.361Z,24.3
2018-04-18T08:55:07.567Z,24.5
2018-04-18T08:56:14.779Z,24.8
2018-04-18T08:57:22.002Z,24.8
2018-04-18T08:58:28.937Z,24.9
2018-04-18T08:59:36.151Z,25.1
2018-04-18T09:00:43.363Z,25.4
2018-04-18T09:01:50.581Z,25.3
2018-04-18T09:02:57.809Z,25.2
2018-04-18T09:04:04.776Z,25.3
2018-04-18T09:05:11.740Z,25.4
2018-04-18T09:06:19.001Z,25.7
2018-04-18T09:07:26.235Z,25.6
2018-04-18T09:08:33.205Z,25.7
2018-04-18T09:09:40.430Z,25.2
2018-04-18T09:10:47.690Z,25.3
2018-04-18T09:11:54.918Z,25.5
2018-04-18T09:13:02.252Z,25.6
2018-04-18T09:14:09.470Z,25
2018-04-18T09:15:16.696Z,24.2
2018-04-18T09:16:23.915Z,24.2
2018-04-18T09:17:31.192Z,24.2
2018-04-18T09:18:38.418Z,24.5
2018-04-18T09:19:45.637Z,24.8
2018-04-18T09:20:53.113Z,25.2
2018-04-18T09:22:00.079Z,25.2
2018-04-18T09:23:07.301Z,25.2
2018-04-18T09:24:14.537Z,25.1
2018-04-18T09:25:21.767Z,25.2
2018-04-18T09:26:28.992Z,25.5
2018-04-18T09:27:36.206Z,25.7
2018-04-18T09:28:43.424Z,26
2018-04-18T09:29:50.380Z,26.1
2018-04-18T09:30:57.592Z,26.2
2018-04-18T09:32:04.811Z,26.2
2018-04-18T09:33:11.757Z,26.2
2018-04-18T09:34:18.704Z,26.4
2018-04-18T09:35:25.711Z,26.5
2018-04-18T09:36:32.922Z,26.8
2018-04-18T09:37:40.144Z,26.9
2018-04-18T09:38:47.100Z,27
2018-04-18T09:39:54.310Z,27.1
2018-04-18T09:41:01.677Z,27.1
2018-04-18T09:42:08.896Z,26.8
2018-04-18T09:43:15.837Z,26.8
2018-04-18T09:44:23.050Z,26.8
2018-04-18T09:45:30.278Z,26.9
2018-04-18T09:46:38.199Z,26.7
2018-04-18T09:47:45.140Z,26.7
2018-04-18T09:48:52.157Z,26.5
2018-04-18T09:49:59.392Z,26.5
2018-04-18T09:51:06.338Z,26.5
2018-04-18T09:52:13.567Z,26.6
2018-04-18T09:53:20.795Z,27
2018-04-18T09:54:27.736Z,27.2
2018-04-18T09:55:34.970Z,27.3
2018-04-18T09:56:42.187Z,27.2
2018-04-18T09:57:49.404Z,27.1
2018-04-18T09:58:56.623Z,26.9
2018-04-18T10:00:03.857Z,26.9
2018-04-18T10:01:11.081Z,26.9
2018-04-18T10:02:18.302Z,26.5
2018-04-18T10:03:25.517Z,26.6
2018-04-18T10:04:32.740Z,26.5
2018-04-18T10:05:39.963Z,26.6
2018-04-18T10:06:46.915Z,26.6
2018-04-18T10:07:53.854Z,26.6
2018-04-18T10:09:01.080Z,26.8
2018-04-18T10:10:08.306Z,26.8
2018-04-18T10:11:15.534Z,26.5
2018-04-18T10:12:22.752Z,26.5
2018-04-18T10:13:29.970Z,26.3
2018-04-18T10:14:37.199Z,26.3
2018-04-18T10:15:44.143Z,26.5
2018-04-18T10:16:51.370Z,26.5
2018-04-18T10:17:58.588Z,26.5
2018-04-18T10:19:05.807Z,26.5
2018-04-18T10:20:13.026Z,26.2
2018-04-18T10:21:20.251Z,26.3
2018-04-18T10:22:27.488Z,26.4
2018-04-18T10:23:34.711Z,26.2
2018-04-18T10:24:41.671Z,26.2
2018-04-18T10:25:48.624Z,26.3
2018-04-18T10:26:55.861Z,26.4
2018-04-18T10:28:03.081Z,26.4
2018-04-18T10:29:10.356Z,26.3
2018-04-18T10:30:17.577Z,25.9
2018-04-18T10:31:24.794Z,25.7
2018-04-18T10:32:32.017Z,25.5
2018-04-18T10:33:39.249Z,25.2
2018-04-18T10:34:46.465Z,25
2018-04-18T10:35:53.694Z,24.8
2018-04-18T10:37:00.924Z,24.7
2018-04-18T10:38:08.207Z,25.1
2018-04-18T10:39:15.598Z,25.4
2018-04-18T10:40:22.857Z,25.7
2018-04-18T10:41:30.081Z,26
2018-04-18T10:42:37.048Z,26.4
2018-04-18T10:43:44.277Z,26.8
2018-04-18T10:44:51.498Z,26.7
2018-04-18T10:45:58.720Z,27.1
2018-04-18T10:47:05.940Z,27.4
2018-04-18T10:48:13.168Z,27.4
2018-04-18T10:49:20.116Z,27.3
2018-04-18T10:50:27.345Z,27.3
2018-04-18T10:51:34.571Z,27.5
2018-04-18T10:52:41.792Z,27.3
2018-04-18T10:53:49.007Z,27.3
2018-04-18T10:54:56.234Z,27.3
2018-04-18T10:56:03.180Z,27.4
2018-04-18T10:57:10.405Z,27.5
2018-04-18T10:58:17.624Z,27.7
2018-04-18T10:59:24.864Z,27.6
2018-04-18T11:00:32.093Z,27.3
2018-04-18T11:01:39.325Z,27.2
2018-04-18T11:02:46.286Z,27.3
2018-04-18T11:03:53.241Z,27.3
2018-04-18T11:05:00.200Z,27.2
2018-04-18T11:06:07.144Z,27.3
2018-04-18T11:07:14.375Z,27.2
2018-04-18T11:08:36.248Z,27.4
2018-04-18T11:09:43.501Z,27.5
2018-04-18T11:10:50.733Z,27.3
2018-04-18T11:11:57.972Z,27.2
2018-04-18T11:13:05.204Z,27.5
2018-04-18T11:14:12.433Z,27.7
2018-04-18T11:15:19.665Z,27.8
2018-04-18T11:16:26.896Z,27.7
2018-04-18T11:17:34.117Z,27.8
2018-04-18T11:18:41.436Z,27.9
2018-04-18T11:19:48.750Z,28.2
2018-04-18T11:20:55.699Z,28.5
2018-04-18T11:22:02.934Z,28.7
2018-04-18T11:23:09.606Z,28.3
2018-04-18T11:24:16.823Z,27.6
2018-04-18T11:25:24.037Z,27.3
2018-04-18T11:26:31.278Z,27.4
2018-04-18T11:27:38.499Z,27.8
2018-04-18T11:28:45.717Z,28
2018-04-18T11:29:52.936Z,27.9
2018-04-18T11:31:00.165Z,27.8
2018-04-18T11:32:07.394Z,27.8
2018-04-18T11:33:14.618Z,28
2018-04-18T11:34:21.841Z,28.3
2018-04-18T11:35:29.066Z,28.5
2018-04-18T11:36:36.297Z,28.7
2018-04-18T11:37:43.517Z,29
2018-04-18T11:38:50.468Z,29.2
2018-04-18T11:39:57.406Z,29
2018-04-18T11:41:04.621Z,28.8
2018-04-18T11:42:11.848Z,29
2018-04-18T11:43:19.098Z,28.7
2018-04-18T11:44:26.358Z,28.5
2018-04-18T11:45:33.708Z,28.5
2018-04-18T11:46:40.658Z,28.2
2018-04-18T11:47:47.616Z,28.5
2018-04-18T11:48:54.849Z,28.6
2018-04-18T11:50:02.066Z,28.6
2018-04-18T11:51:09.348Z,28.4
2018-04-18T11:52:16.692Z,28.3
2018-04-18T11:53:23.911Z,28.4
2018-04-18T11:54:31.132Z,28.5
2018-04-18T11:55:38.357Z,28.5
2018-04-18T11:56:45.575Z,28.5
2018-04-18T11:57:52.802Z,28.6
2018-04-18T11:59:00.022Z,28.6
2018-04-18T12:00:07.258Z,28.5
2018-04-18T12:01:14.620Z,28.3
2018-04-18T12:02:22.079Z,28.4
2018-04-18T12:03:29.037Z,28.4
2018-04-18T12:04:36.264Z,28.3
2018-04-18T12:05:43.237Z,28.4
2018-04-18T12:06:50.221Z,28.3
2018-04-18T12:07:57.444Z,28.6
2018-04-18T12:09:04.395Z,28.8
2018-04-18T12:10:11.619Z,29
2018-04-18T12:11:18.844Z,28.8
2018-04-18T12:12:25.791Z,28.2
2018-04-18T12:13:33.017Z,28.1
2018-04-18T12:14:40.233Z,27.8
2018-04-18T12:15:47.472Z,28
2018-04-18T12:16:54.701Z,28.3
2018-04-18T12:18:01.647Z,28.3
2018-04-18T12:19:08.918Z,28.6
2018-04-18T12:20:16.143Z,29.1
2018-04-18T12:21:23.367Z,29.1
2018-04-18T12:22:30.592Z,28.9
2018-04-18T12:23:37.823Z,29.1
2018-04-18T12:24:44.793Z,29.1
2018-04-18T12:25:52.022Z,29.2
2018-04-18T12:26:59.248Z,29.4
2018-04-18T12:28:06.504Z,29.7
2018-04-18T12:29:13.732Z,29.2
2018-04-18T12:30:20.972Z,29.1
2018-04-18T12:31:28.201Z,29.2
2018-04-18T12:32:35.441Z,29
2018-04-18T12:33:42.693Z,28.9
2018-04-18T12:34:49.706Z,29.2
2018-04-18T12:35:56.927Z,29.3
2018-04-18T12:37:03.875Z,29.3
2018-04-18T12:38:11.096Z,29.4
2018-04-18T12:39:18.328Z,29.6
2018-04-18T12:40:25.548Z,29.6
2018-04-18T12:41:32.784Z,29.4
2018-04-18T12:42:40.010Z,29
2018-04-18T12:43:47.273Z,28.3
2018-04-18T12:44:54.562Z,28.1
2018-04-18T12:46:01.780Z,28.3
2018-04-18T12:47:08.735Z,28.6
2018-04-18T12:48:15.683Z,28.6
2018-04-18T12:49:22.638Z,28.7
2018-04-18T12:50:29.854Z,28.8
2018-04-18T12:51:37.080Z,29.1
2018-04-18T12:52:44.329Z,29.3
2018-04-18T12:53:51.566Z,29.5
2018-04-18T12:54:58.790Z,29.5
2018-04-18T12:56:05.744Z,29.4
2018-04-18T12:57:12.994Z,29.2
2018-04-18T12:58:20.217Z,29.1
2018-04-18T12:59:27.160Z,28.9
2018-04-18T13:00:34.384Z,28.7
2018-04-18T13:01:41.636Z,28.9
2018-04-18T13:02:48.873Z,29.2
2018-04-18T13:03:56.098Z,29.7
2018-04-18T13:05:03.057Z,29.9
2018-04-18T13:06:10.287Z,29.6
2018-04-18T13:07:17.237Z,29.7
2018-04-18T13:08:24.488Z,29.9
2018-04-18T13:09:31.720Z,29.8
2018-04-18T13:10:38.984Z,29.5
2018-04-18T13:11:46.330Z,29.9
2018-04-18T13:12:53.561Z,29.9
2018-04-18T13:14:00.232Z,30.3
2018-04-18T13:15:07.501Z,30.6
2018-04-18T13:16:14.724Z,30.9
2018-04-18T13:17:36.330Z,30.7
2018-04-18T13:18:43.283Z,30.1
2018-04-18T13:19:50.508Z,30.4
2018-04-18T13:20:57.736Z,30.5
2018-04-18T13:22:04.956Z,30.4
2018-04-18T13:23:12.176Z,30.5
2018-04-18T13:24:19.404Z,30.8
2018-04-18T13:25:26.675Z,30.9
2018-04-18T13:26:33.640Z,30.6
2018-04-18T13:27:40.883Z,29.9
2018-04-18T13:28:48.336Z,29.8
2018-04-18T13:29:55.577Z,29.8
2018-04-18T13:31:02.671Z,29.9
2018-04-18T13:32:09.651Z,30.2
2018-04-18T13:33:16.878Z,30.2
2018-04-18T13:34:24.117Z,29.9
2018-04-18T13:35:31.348Z,29.8
2018-04-18T13:36:38.577Z,29.7
2018-04-18T13:37:45.842Z,29.7
2018-04-18T13:38:53.067Z,29.1
2018-04-18T13:40:00.289Z,28.9
2018-04-18T13:41:07.517Z,29
2018-04-18T13:42:14.742Z,29.3
2018-04-18T13:43:21.971Z,29.1
2018-04-18T13:44:29.197Z,29
2018-04-18T13:45:36.429Z,28.8
2018-04-18T13:46:43.389Z,29
2018-04-18T13:47:50.609Z,29.2
2018-04-18T13:48:57.834Z,29.6
2018-04-18T13:50:05.286Z,29.9
2018-04-18T13:51:12.524Z,30.4
2018-04-18T13:52:19.758Z,30.9
2018-04-18T13:53:26.993Z,31.1
2018-04-18T13:54:34.218Z,31.1
2018-04-18T13:55:41.463Z,31.3
2018-04-18T13:56:48.709Z,31.2
2018-04-18T13:57:55.670Z,30.9
2018-04-18T13:59:02.898Z,30.8
2018-04-18T14:00:10.137Z,30.9
2018-04-18T14:01:17.373Z,30.8
2018-04-18T14:02:24.629Z,30.9
2018-04-18T14:03:31.861Z,31
2018-04-18T14:04:39.094Z,31.1
2018-04-18T14:05:46.339Z,31.1
2018-04-18T14:06:53.801Z,31.1
2018-04-18T14:08:01.045Z,30.9
2018-04-18T14:09:08.281Z,30.8
2018-04-18T14:10:15.498Z,30.9
2018-04-18T14:11:22.724Z,30.8
2018-04-18T14:12:29.948Z,29.5
2018-04-18T14:13:36.873Z,28.9
2018-04-18T14:14:44.104Z,29.2
2018-04-18T14:15:51.336Z,29.6
2018-04-18T14:16:58.280Z,30
2018-04-18T14:18:04.962Z,30.5
2018-04-18T14:19:12.189Z,31
2018-04-18T14:20:19.421Z,31.4
2018-04-18T14:21:26.665Z,31.5
2018-04-18T14:22:33.887Z,31.7
2018-04-18T14:23:41.128Z,31.2
2018-04-18T14:24:48.354Z,31.2
2018-04-18T14:25:55.587Z,31.1
2018-04-18T14:27:02.810Z,30.9
2018-04-18T14:28:10.041Z,30.6
2018-04-18T14:29:17.263Z,30.2
2018-04-18T14:30:24.481Z,29.8
2018-04-18T14:31:31.433Z,29.9
2018-04-18T14:32:38.723Z,30
2018-04-18T14:33:45.990Z,30
2018-04-18T14:34:52.979Z,30.3
2018-04-18T14:35:59.952Z,30.3
2018-04-18T14:37:06.900Z,30.5
2018-04-18T14:38:14.124Z,30.5
2018-04-18T14:39:21.384Z,30.3
2018-04-18T14:40:28.619Z,29.9
2018-04-18T14:41:35.571Z,30.2
2018-04-18T14:42:42.807Z,30.5
2018-04-18T14:43:50.057Z,30.4
2018-04-18T14:44:57.287Z,29.5
2018-04-18T14:46:04.513Z,28.7
2018-04-18T14:47:11.795Z,28.7
2018-04-18T14:48:19.027Z,29.2
2018-04-18T14:49:26.250Z,29.8
2018-04-18T14:50:33.481Z,30.1
2018-04-18T14:51:40.711Z,29.9
2018-04-18T14:52:47.933Z,30.1
2018-04-18T14:53:55.190Z,30
2018-04-18T14:55:02.420Z,30.1
2018-04-18T14:56:09.647Z,29.8
2018-04-18T14:57:16.598Z,29.8
2018-04-18T14:58:23.823Z,29.7
2018-04-18T14:59:30.762Z,29.8
2018-04-18T15:00:37.990Z,29.6
2018-04-18T15:01:45.217Z,29.9
2018-04-18T15:02:52.459Z,29.9
2018-04-18T15:03:59.685Z,30.2
2018-04-18T15:05:06.928Z,30.3
2018-04-18T15:06:14.155Z,30.4
2018-04-18T15:07:21.150Z,30.8
2018-04-18T15:08:28.389Z,31.1
2018-04-18T15:09:35.621Z,31.2
2018-04-18T15:10:42.881Z,31
2018-04-18T15:11:50.092Z,30.7